createdAt,value
2018-06-27T00:00:17.754Z,31.1
2018-06-27T00:01:07.467Z,31.1
2018-06-27T00:01:57.944Z,31.1
2018-06-27T00:02:48.195Z,31.1
2018-06-27T00:03:38.267Z,31.1
2018-06-27T00:04:27.160Z,31.1
2018-06-27T00:05:18.070Z,31.1
2018-06-27T00:06:08.137Z,31.1
2018-06-27T00:06:58.212Z,31.1
2018-06-27T00:07:48.522Z,31.1
2018-06-27T00:08:38.064Z,31.1
2018-06-27T00:09:28.353Z,31.1
2018-06-27T00:10:18.456Z,31.1
2018-06-27T00:11:08.760Z,31.1
2018-06-27T00:11:57.733Z,31.1
2018-06-27T00:12:48.078Z,31.1
2018-06-27T00:13:38.157Z,31.1
2018-06-27T00:14:28.513Z,31.1
2018-06-27T00:15:18.590Z,31.1
2018-06-27T00:16:09.175Z,31.1
2018-06-27T00:16:58.704Z,31.1
2018-06-27T00:17:48.732Z,31.1
2018-06-27T00:18:38.547Z,31.1
2018-06-27T00:19:30.409Z,31.1
2018-06-27T00:20:19.244Z,31.1
2018-06-27T00:21:08.778Z,31.1
2018-06-27T00:21:59.612Z,31.1
2018-06-27T00:22:49.389Z,31.1
2018-06-27T00:23:39.182Z,31.1
2018-06-27T00:24:29.773Z,31.1
2018-06-27T00:25:19.750Z,31.1
2018-06-27T00:26:09.179Z,31
2018-06-27T00:26:59.421Z,31.1
2018-06-27T00:27:50.022Z,31
2018-06-27T00:28:39.509Z,31
2018-06-27T00:29:30.182Z,31
2018-06-27T00:30:19.662Z,31
2018-06-27T00:31:09.767Z,31
2018-06-27T00:32:00.335Z,31
2018-06-27T00:32:49.861Z,31
2018-06-27T00:33:40.458Z,31
2018-06-27T00:34:30.283Z,31
2018-06-27T00:35:20.346Z,31
2018-06-27T00:36:09.833Z,31
2018-06-27T00:37:00.705Z,31
2018-06-27T00:37:50.527Z,31
2018-06-27T00:38:40.281Z,31
2018-06-27T00:39:30.925Z,31
2018-06-27T00:40:20.960Z,31
2018-06-27T00:41:09.905Z,31
2018-06-27T00:42:00.587Z,31
2018-06-27T00:42:49.754Z,31
2018-06-27T00:43:40.674Z,31
2018-06-27T00:44:30.461Z,31
2018-06-27T00:45:21.098Z,31
2018-06-27T00:46:11.454Z,31
2018-06-27T00:47:00.917Z,31
2018-06-27T00:47:51.276Z,30.9
2018-06-27T00:48:41.369Z,30.9
2018-06-27T00:49:31.384Z,31
2018-06-27T00:50:21.767Z,31
2018-06-27T00:51:11.506Z,30.9
2018-06-27T00:52:01.661Z,30.9
2018-06-27T00:52:50.805Z,30.9
2018-06-27T00:53:41.051Z,30.9
2018-06-27T00:54:32.011Z,30.9
2018-06-27T00:55:21.588Z,30.9
2018-06-27T00:56:12.190Z,30.9
2018-06-27T00:57:02.276Z,30.9
2018-06-27T00:57:51.440Z,30.9
2018-06-27T00:58:42.367Z,30.9
2018-06-27T00:59:32.158Z,30.9
2018-06-27T01:00:22.193Z,30.9
2018-06-27T01:01:11.983Z,30.9
2018-06-27T01:02:01.500Z,30.9
2018-06-27T01:02:52.680Z,30.9
2018-06-27T01:03:42.424Z,30.9
2018-06-27T01:04:32.788Z,30.9
2018-06-27T01:05:22.838Z,30.9
2018-06-27T01:06:12.661Z,30.9
2018-06-27T01:07:02.998Z,30.9
2018-06-27T01:07:53.021Z,30.9
2018-06-27T01:08:43.140Z,30.9
2018-06-27T01:09:32.409Z,30.9
2018-06-27T01:10:23.210Z,30.9
2018-06-27T01:11:12.749Z,30.9
2018-06-27T01:12:03.387Z,30.9
2018-06-27T01:12:52.894Z,30.9
2018-06-27T01:13:43.490Z,30.9
2018-06-27T01:14:33.290Z,30.9
2018-06-27T01:15:23.646Z,30.9
2018-06-27T01:16:13.411Z,30.9
2018-06-27T01:17:02.916Z,30.9
2018-06-27T01:17:53.821Z,30.9
2018-06-27T01:18:43.364Z,30.9
2018-06-27T01:19:33.928Z,30.9
2018-06-27T01:20:23.421Z,30.9
2018-06-27T01:21:12.933Z,30.9
2018-06-27T01:22:04.113Z,30.9
2018-06-27T01:22:53.048Z,30.9
2018-06-27T01:23:44.253Z,30.9
2018-06-27T01:24:33.739Z,30.9
2018-06-27T01:25:23.821Z,30.9
2018-06-27T01:26:14.187Z,30.9
2018-06-27T01:27:04.307Z,30.9
2018-06-27T01:27:54.316Z,30.9
2018-06-27T01:28:44.377Z,30.8
2018-06-27T01:29:34.453Z,30.9
2018-06-27T01:30:24.470Z,30.9
2018-06-27T01:31:14.589Z,30.9
2018-06-27T01:32:04.901Z,30.9
2018-06-27T01:32:54.716Z,30.8
2018-06-27T01:33:44.155Z,30.9
2018-06-27T01:34:34.492Z,30.9
2018-06-27T01:35:24.942Z,30.8
2018-06-27T01:36:15.185Z,30.8
2018-06-27T01:37:05.004Z,30.8
2018-06-27T01:37:55.098Z,30.8
2018-06-27T01:38:44.837Z,30.9
2018-06-27T01:39:34.073Z,30.9
2018-06-27T01:40:25.595Z,30.8
2018-06-27T01:41:15.576Z,30.9
2018-06-27T01:42:04.784Z,30.8
2018-06-27T01:42:55.466Z,30.8
2018-06-27T01:43:45.753Z,30.8
2018-06-27T01:44:35.263Z,30.8
2018-06-27T01:45:25.324Z,30.8
2018-06-27T01:46:14.875Z,30.8
2018-06-27T01:47:05.474Z,30.8
2018-06-27T01:47:55.249Z,30.8
2018-06-27T01:48:45.585Z,30.8
2018-06-27T01:49:35.647Z,30.8
2018-06-27T01:50:26.281Z,30.8
2018-06-27T01:51:15.183Z,30.8
2018-06-27T01:52:06.108Z,30.8
2018-06-27T01:52:55.890Z,30.8
2018-06-27T01:53:45.936Z,30.8
2018-06-27T01:54:36.302Z,30.8
2018-06-27T01:55:26.128Z,30.8
2018-06-27T01:56:15.855Z,30.8
2018-06-27T01:57:06.840Z,30.8
2018-06-27T01:57:56.577Z,30.8
2018-06-27T01:58:46.041Z,30.8
2018-06-27T01:59:37.004Z,30.8
2018-06-27T02:00:27.043Z,30.8
2018-06-27T02:01:17.142Z,30.8
2018-06-27T02:02:06.844Z,30.8
2018-06-27T02:02:56.403Z,30.8
2018-06-27T02:03:46.963Z,30.8
2018-06-27T02:04:37.097Z,30.8
2018-06-27T02:05:26.574Z,30.8
2018-06-27T02:06:17.236Z,30.8
2018-06-27T02:07:07.547Z,30.6
2018-06-27T02:07:57.303Z,30.6
2018-06-27T02:08:47.345Z,30.6
2018-06-27T02:09:37.705Z,30.6
2018-06-27T02:10:27.838Z,30.8
2018-06-27T02:11:17.330Z,30.8
2018-06-27T02:12:07.623Z,30.9
2018-06-27T02:12:57.461Z,31.1
2018-06-27T02:13:47.760Z,31.3
2018-06-27T02:14:38.110Z,31.4
2018-06-27T02:15:27.865Z,31.6
2018-06-27T02:16:17.943Z,31.8
2018-06-27T02:17:08.258Z,31.9
2018-06-27T02:17:58.150Z,32.1
2018-06-27T02:18:47.855Z,32.3
2018-06-27T02:19:38.472Z,32.4
2018-06-27T02:20:27.991Z,32.4
2018-06-27T02:21:18.582Z,32.6
2018-06-27T02:22:07.823Z,32.8
2018-06-27T02:22:58.499Z,33
2018-06-27T02:23:48.803Z,33.1
2018-06-27T02:24:38.575Z,33.4
2018-06-27T02:25:28.089Z,33.6
2018-06-27T02:26:18.682Z,33.8
2018-06-27T02:27:08.804Z,33.9
2018-06-27T02:27:58.870Z,34
2018-06-27T02:28:48.604Z,34.3
2018-06-27T02:29:37.843Z,34.4
2018-06-27T02:30:29.281Z,34.6
2018-06-27T02:31:19.390Z,34.8
2018-06-27T02:32:08.876Z,34.9
2018-06-27T02:32:59.249Z,35.1
2018-06-27T02:33:49.555Z,35.2
2018-06-27T02:34:39.401Z,35.5
2018-06-27T02:35:28.805Z,35.6
2018-06-27T02:36:19.161Z,35.8
2018-06-27T02:37:09.282Z,36
2018-06-27T02:37:59.595Z,36.1
2018-06-27T02:38:49.665Z,36.4
2018-06-27T02:39:40.011Z,36.6
2018-06-27T02:40:29.538Z,36.7
2018-06-27T02:41:20.109Z,36.8
2018-06-27T02:42:09.627Z,37
2018-06-27T02:43:00.255Z,37.3
2018-06-27T02:43:49.760Z,37.4
2018-06-27T02:44:39.826Z,37.7
2018-06-27T02:45:30.135Z,37.9
2018-06-27T02:46:20.217Z,38
2018-06-27T02:47:10.302Z,38.1
2018-06-27T02:48:00.068Z,38.4
2018-06-27T02:48:50.751Z,38.6
2018-06-27T02:49:40.067Z,38.8
2018-06-27T02:50:30.830Z,38.9
2018-06-27T02:51:20.344Z,39.1
2018-06-27T02:52:11.047Z,39.3
2018-06-27T02:53:00.461Z,39.5
2018-06-27T02:53:50.811Z,39.8
2018-06-27T02:54:40.866Z,39.8
2018-06-27T02:55:30.973Z,40.1
2018-06-27T02:56:20.174Z,40.3
2018-06-27T02:57:11.331Z,40.4
2018-06-27T02:58:01.121Z,40.6
2018-06-27T02:58:50.606Z,40.7
2018-06-27T02:59:41.235Z,40.9
2018-06-27T03:00:31.030Z,41
2018-06-27T03:01:20.833Z,41.1
2018-06-27T03:02:11.483Z,41.4
2018-06-27T03:03:01.511Z,41.6
2018-06-27T03:03:51.002Z,41.8
2018-06-27T03:04:41.333Z,41.9
2018-06-27T03:05:31.107Z,42.1
2018-06-27T03:06:22.080Z,42.3
2018-06-27T03:07:11.864Z,42.5
2018-06-27T03:08:01.894Z,42.7
2018-06-27T03:08:51.660Z,42.9
2018-06-27T03:09:42.010Z,43.1
2018-06-27T03:10:31.796Z,43.3
2018-06-27T03:11:21.593Z,43.4
2018-06-27T03:12:11.914Z,43.6
2018-06-27T03:13:02.263Z,43.8
2018-06-27T03:13:52.317Z,43.9
2018-06-27T03:14:42.362Z,44.3
2018-06-27T03:15:32.414Z,44.4
2018-06-27T03:16:22.475Z,44.5
2018-06-27T03:17:12.847Z,44.6
2018-06-27T03:18:02.663Z,44.8
2018-06-27T03:18:52.962Z,45
2018-06-27T03:19:42.726Z,45.3
2018-06-27T03:20:33.293Z,45.4
2018-06-27T03:21:22.319Z,45.6
2018-06-27T03:22:12.966Z,45.8
2018-06-27T03:23:03.321Z,46
2018-06-27T03:23:52.738Z,46.1
2018-06-27T03:24:42.822Z,46.3
2018-06-27T03:25:33.344Z,46.4
2018-06-27T03:26:23.272Z,46.6
2018-06-27T03:27:12.747Z,46.8
2018-06-27T03:28:03.100Z,46.9
2018-06-27T03:28:53.737Z,47.3
2018-06-27T03:29:42.720Z,47.4
2018-06-27T03:30:34.090Z,47.4
2018-06-27T03:31:23.911Z,47.4
2018-06-27T03:32:13.163Z,47.5
2018-06-27T03:33:03.749Z,47.5
2018-06-27T03:33:54.129Z,47.5
2018-06-27T03:34:43.618Z,47.5
2018-06-27T03:35:33.391Z,47.5
2018-06-27T03:36:23.710Z,47.6
2018-06-27T03:37:14.325Z,47.6
2018-06-27T03:38:04.163Z,47.6
2018-06-27T03:38:53.901Z,47.6
2018-06-27T03:39:43.987Z,47.5
2018-06-27T03:40:34.058Z,47.6
2018-06-27T03:41:24.644Z,47.6
2018-06-27T03:42:14.740Z,47.6
2018-06-27T03:43:04.266Z,47.6
2018-06-27T03:43:54.573Z,47.6
2018-06-27T03:44:44.385Z,47.6
2018-06-27T03:45:34.438Z,47.6
2018-06-27T03:46:25.103Z,47.6
2018-06-27T03:47:14.531Z,47.5
2018-06-27T03:48:05.133Z,47.5
2018-06-27T03:48:55.223Z,47.5
2018-06-27T03:49:45.012Z,47.5
2018-06-27T03:50:35.381Z,47.5
2018-06-27T03:51:25.393Z,47.5
2018-06-27T03:52:15.487Z,47.5
2018-06-27T03:53:04.957Z,47.5
2018-06-27T03:53:55.339Z,47.5
2018-06-27T03:54:44.828Z,47.5
2018-06-27T03:55:34.582Z,47.5
2018-06-27T03:56:25.854Z,47.5
2018-06-27T03:57:15.913Z,47.5
2018-06-27T03:58:05.659Z,47.5
2018-06-27T03:58:55.554Z,47.5
2018-06-27T22:30:41.761Z,49.3
2018-06-27T22:31:31.863Z,49.3
2018-06-27T22:32:21.880Z,49.3
2018-06-27T22:33:12.258Z,49.3
2018-06-27T22:34:02.312Z,49.3
2018-06-27T22:34:51.643Z,49.3
2018-06-27T22:35:41.883Z,49.3
2018-06-27T22:36:32.048Z,49.3
2018-06-27T22:37:21.823Z,49.3
2018-06-27T22:38:12.354Z,49.3
2018-06-27T22:39:02.701Z,49.3
2018-06-27T22:39:52.747Z,49.3
2018-06-27T22:40:42.521Z,49.3
2018-06-27T22:41:33.310Z,49.3
2018-06-27T22:42:22.972Z,49.3
2018-06-27T22:43:12.753Z,49.3
2018-06-27T22:44:02.911Z,49.2
2018-06-27T22:44:53.071Z,49.3
2018-06-27T22:45:42.395Z,49.3
2018-06-27T22:46:32.991Z,49.2
2018-06-27T22:47:22.797Z,49.2
2018-06-27T22:48:12.538Z,49.2
2018-06-27T22:49:06.283Z,49.2
2018-06-27T22:49:57.377Z,49.2
2018-06-27T22:50:47.218Z,49.2
2018-06-27T22:51:37.032Z,49.2
2018-06-27T22:52:27.413Z,49.2
2018-06-27T22:53:16.882Z,49.2
2018-06-27T22:54:06.959Z,49.2
2018-06-27T22:54:57.259Z,49.2
2018-06-27T22:55:47.608Z,49.2
2018-06-27T22:56:38.563Z,49.2
2018-06-27T22:57:27.756Z,49.1
2018-06-27T22:58:17.823Z,49.1
2018-06-27T22:59:07.819Z,49.2
2018-06-27T22:59:57.969Z,49.2
2018-06-27T23:00:47.689Z,49.1
2018-06-27T23:01:38.031Z,49.1
2018-06-27T23:02:28.131Z,49.1
2018-06-27T23:03:17.880Z,49.1
2018-06-27T23:04:08.280Z,49.1
2018-06-27T23:04:58.021Z,49.1
2018-06-27T23:05:48.371Z,49.1
2018-06-27T23:06:38.176Z,49.1
2018-06-27T23:07:28.459Z,49.1
2018-06-27T23:08:18.254Z,49.1
2018-06-27T23:09:22.725Z,49.1
2018-06-27T23:09:58.431Z,49.1
2018-06-27T23:10:48.506Z,49.1
2018-06-27T23:11:38.268Z,49.1
2018-06-27T23:12:28.028Z,49.1
2018-06-27T23:13:18.960Z,49.1
2018-06-27T23:14:08.307Z,49.1
2018-06-27T23:14:58.468Z,49.1
2018-06-27T23:15:48.246Z,49.1
2018-06-27T23:16:38.868Z,49.1
2018-06-27T23:17:28.961Z,49.1
2018-06-27T23:18:19.508Z,49.1
2018-06-27T23:19:09.343Z,49.1
2018-06-27T23:19:59.128Z,49.1
2018-06-27T23:21:04.096Z,49.1
2018-06-27T23:21:39.534Z,49.1
2018-06-27T23:22:29.585Z,49.1
2018-06-27T23:23:19.473Z,49.1
2018-06-27T23:24:09.181Z,49.1
2018-06-27T23:24:59.541Z,49.1
2018-06-27T23:25:49.732Z,49.1
2018-06-27T23:26:40.123Z,49
2018-06-27T23:27:30.119Z,49.1
2018-06-27T23:28:19.764Z,49.1
2018-06-27T23:29:10.141Z,49
2018-06-27T23:30:00.261Z,49
